createdAt,value
2022-11-12T00:00:32.055Z,2.33
2022-11-12T00:03:33.382Z,2.30
2022-11-12T00:06:34.816Z,2.26
2022-11-12T00:09:36.224Z,2.28
2022-11-12T00:12:37.562Z,2.18
2022-11-12T00:15:39.228Z,2.09
2022-11-12T00:18:40.533Z,2.08
2022-11-12T00:21:41.877Z,2.08
2022-11-12T00:24:43.234Z,2.07
2022-11-12T00:27:44.620Z,2.06
2022-11-12T00:30:45.966Z,2.05
2022-11-12T00:33:47.287Z,2.05
2022-11-12T00:36:48.622Z,2.05
2022-11-12T00:39:50.005Z,2.06
2022-11-12T00:42:52.192Z,2.03
2022-11-12T00:45:53.529Z,2.04
2022-11-12T00:48:54.883Z,2.06
2022-11-12T00:51:56.230Z,2.01
2022-11-12T00:54:57.564Z,1.96
2022-11-12T00:57:59.297Z,1.88
2022-11-12T01:01:07.830Z,1.87
2022-11-12T01:04:09.405Z,1.87
2022-11-12T01:07:10.779Z,1.84
2022-11-12T01:10:12.160Z,1.79
2022-11-12T01:13:13.480Z,1.77
2022-11-12T01:16:15.881Z,1.70
2022-11-12T01:19:17.231Z,1.69
2022-11-12T01:22:18.586Z,1.67
2022-11-12T01:25:19.974Z,1.67
2022-11-12T01:28:21.291Z,1.63
2022-11-12T01:31:28.635Z,1.66
2022-11-12T01:34:29.965Z,1.63
2022-11-12T01:37:31.270Z,1.64
2022-11-12T01:40:32.806Z,1.56
2022-11-12T01:43:34.147Z,1.48
2022-11-12T01:46:35.659Z,1.45
2022-11-12T01:49:39.676Z,1.44
2022-11-12T01:52:42.875Z,1.49
2022-11-12T01:55:44.271Z,1.46
2022-11-12T01:58:45.636Z,1.42
2022-11-12T02:01:46.964Z,1.39
2022-11-12T02:04:48.351Z,1.40
2022-11-12T02:07:49.758Z,1.40
2022-11-12T02:10:51.121Z,1.39
2022-11-12T02:13:58.542Z,1.43
2022-11-12T02:16:59.877Z,1.46
2022-11-12T02:20:01.218Z,1.46
2022-11-12T02:23:02.834Z,1.39
2022-11-12T02:26:04.163Z,1.44
2022-11-12T02:29:05.517Z,1.48
2022-11-12T02:32:06.826Z,1.44
2022-11-12T02:35:08.180Z,1.40
2022-11-12T02:38:09.499Z,1.40
2022-11-12T02:41:10.907Z,1.35
2022-11-12T02:44:12.243Z,1.29
2022-11-12T02:47:13.547Z,1.24
2022-11-12T02:50:15.077Z,1.16
2022-11-12T02:53:16.441Z,1.12
2022-11-12T02:56:17.772Z,1.08
2022-11-12T02:59:19.094Z,1.06
2022-11-12T03:02:20.396Z,1.07
2022-11-12T03:05:21.714Z,1.08
2022-11-12T03:08:23.249Z,1.11
2022-11-12T03:11:24.874Z,1.18
2022-11-12T03:14:26.229Z,1.21
2022-11-12T03:17:27.557Z,1.21
2022-11-12T03:20:30.034Z,1.21
2022-11-12T03:23:31.355Z,1.23
2022-11-12T03:26:35.790Z,1.25
2022-11-12T03:29:37.444Z,1.26
2022-11-12T03:32:38.765Z,1.22
2022-11-12T03:35:40.149Z,1.23
2022-11-12T03:38:41.467Z,1.22
2022-11-12T03:41:42.858Z,1.26
2022-11-12T03:44:44.204Z,1.29
2022-11-12T03:47:46.085Z,1.31
2022-11-12T03:50:47.462Z,1.30
2022-11-12T03:53:48.823Z,1.30
2022-11-12T03:56:50.201Z,1.32
2022-11-12T03:59:51.542Z,1.32
2022-11-12T04:02:53.014Z,1.34
2022-11-12T04:06:12.945Z,1.36
2022-11-12T04:09:14.289Z,1.41
2022-11-12T04:12:34.257Z,1.38
2022-11-12T04:15:35.668Z,1.34
2022-11-12T04:18:55.725Z,1.38
2022-11-12T04:21:59.847Z,1.33
2022-11-12T04:25:19.906Z,1.30
2022-11-12T04:28:21.243Z,1.30
2022-11-12T04:31:22.609Z,1.31
2022-11-12T04:34:29.972Z,1.31
2022-11-12T04:37:44.366Z,1.23
2022-11-12T04:41:04.511Z,1.20
2022-11-12T04:44:24.641Z,1.11
2022-11-12T04:47:26.253Z,1.08
2022-11-12T04:50:27.582Z,1.08
2022-11-12T04:53:29.718Z,1.08
2022-11-12T04:56:31.042Z,1.11
2022-11-12T04:59:32.395Z,1.11
2022-11-12T05:02:33.728Z,1.11
2022-11-12T05:05:35.097Z,1.09
2022-11-12T05:08:36.419Z,1.07
2022-11-12T05:11:37.736Z,1.10
2022-11-12T05:14:39.141Z,1.09
2022-11-12T05:17:43.911Z,0.97
2022-11-12T05:20:45.284Z,0.93
2022-11-12T05:23:46.637Z,0.82
2022-11-12T05:26:47.962Z,0.88
2022-11-12T05:29:49.387Z,0.86
2022-11-12T05:32:51.068Z,0.87
2022-11-12T05:35:52.419Z,0.81
2022-11-12T05:38:53.730Z,0.76
2022-11-12T05:42:11.827Z,0.80
2022-11-12T05:45:14.175Z,0.84
2022-11-12T05:48:20.181Z,0.84
2022-11-12T05:51:24.432Z,0.87
2022-11-12T05:54:25.765Z,0.76
2022-11-12T05:57:27.439Z,0.74
2022-11-12T06:00:28.785Z,0.69
2022-11-12T06:03:30.223Z,0.68
2022-11-12T06:06:31.559Z,0.81
2022-11-12T06:09:32.892Z,0.77
2022-11-12T06:12:34.221Z,0.77
2022-11-12T06:15:39.277Z,0.81
2022-11-12T06:18:40.919Z,0.70
2022-11-12T06:21:42.279Z,0.75
2022-11-12T06:24:43.736Z,0.71
2022-11-12T06:27:45.251Z,0.70
2022-11-12T06:30:46.570Z,0.67
2022-11-12T06:33:47.938Z,0.67
2022-11-12T06:36:49.281Z,0.75
2022-11-12T06:39:50.632Z,0.78
2022-11-12T06:42:56.117Z,0.87
2022-11-12T06:46:04.241Z,0.91
2022-11-12T06:49:05.586Z,0.96
2022-11-12T06:52:06.933Z,0.86
2022-11-12T06:55:11.349Z,0.66
2022-11-12T06:58:12.670Z,0.70
2022-11-12T07:01:14.615Z,0.72
2022-11-12T07:04:16.079Z,0.81
2022-11-12T07:07:17.467Z,0.91
2022-11-12T07:10:18.854Z,1.00
2022-11-12T07:13:20.253Z,0.97
2022-11-12T07:16:22.442Z,1.04
2022-11-12T07:19:23.787Z,1.09
2022-11-12T07:22:25.175Z,1.00
2022-11-12T07:25:26.546Z,1.07
2022-11-12T07:28:28.190Z,0.99
2022-11-12T07:31:29.799Z,0.99
2022-11-12T07:34:31.131Z,1.04
2022-11-12T07:37:33.722Z,1.13
2022-11-12T07:40:35.080Z,1.29
2022-11-12T07:43:36.633Z,1.37
2022-11-12T07:46:37.970Z,1.36
2022-11-12T07:49:39.399Z,1.32
2022-11-12T07:52:40.739Z,1.37
2022-11-12T07:55:42.100Z,1.46
2022-11-12T07:58:43.556Z,1.58
2022-11-12T08:01:45.379Z,1.52
2022-11-12T08:04:46.852Z,1.38
2022-11-12T08:07:48.380Z,1.64
2022-11-12T08:10:53.472Z,1.81
2022-11-12T08:13:54.786Z,1.69
2022-11-12T08:16:56.116Z,1.81
2022-11-12T08:19:57.478Z,1.88
2022-11-12T08:23:01.671Z,1.87
2022-11-12T08:26:03.795Z,2.02
2022-11-12T08:29:08.736Z,1.97
2022-11-12T08:32:10.890Z,1.76
2022-11-12T08:35:12.273Z,1.92
2022-11-12T08:38:14.168Z,1.97
2022-11-12T08:41:16.313Z,2.12
2022-11-12T08:44:17.663Z,2.04
2022-11-12T08:47:19.028Z,2.12
2022-11-12T08:50:20.384Z,2.20
2022-11-12T08:53:22.086Z,2.30
2022-11-12T08:56:23.435Z,2.24
2022-11-12T08:59:24.768Z,2.38
2022-11-12T09:02:26.075Z,2.51
2022-11-12T09:05:27.533Z,2.51
2022-11-12T09:08:29.332Z,2.83
2022-11-12T09:11:31.051Z,2.74
2022-11-12T09:14:33.063Z,2.74
2022-11-12T09:17:35.232Z,2.93
2022-11-12T09:20:36.558Z,2.95
2022-11-12T09:23:37.936Z,2.90
2022-11-12T09:26:39.275Z,2.95
2022-11-12T09:29:40.678Z,2.96
2022-11-12T09:32:41.987Z,2.97
2022-11-12T09:35:43.477Z,3.03
2022-11-12T09:38:44.854Z,3.09
2022-11-12T09:41:46.163Z,3.05
2022-11-12T09:44:52.979Z,2.95
2022-11-12T09:47:55.714Z,3.09
2022-11-12T09:50:58.729Z,3.14
2022-11-12T09:54:01.804Z,3.38
2022-11-12T09:57:03.165Z,3.49
2022-11-12T10:00:10.726Z,3.37
2022-11-12T10:03:14.569Z,3.59
2022-11-12T10:06:19.257Z,3.64
2022-11-12T10:09:23.025Z,3.80
2022-11-12T10:12:33.184Z,3.87
2022-11-12T10:15:55.313Z,3.91
2022-11-12T10:19:05.332Z,3.87
2022-11-12T10:22:15.878Z,4.09
2022-11-12T10:25:18.094Z,4.04
2022-11-12T10:28:19.413Z,4.08
2022-11-12T10:31:21.220Z,4.12
2022-11-12T10:34:23.150Z,3.95
2022-11-12T10:37:28.637Z,4.14
2022-11-12T10:40:37.110Z,4.23
2022-11-12T10:43:38.794Z,4.48
2022-11-12T10:46:40.107Z,4.66
2022-11-12T10:49:41.573Z,4.83
2022-11-12T10:52:55.000Z,4.57
2022-11-12T10:56:00.162Z,4.81
2022-11-12T10:59:17.610Z,5.00
2022-11-12T11:02:19.174Z,4.67
2022-11-12T11:05:27.503Z,4.91
2022-11-12T11:08:35.957Z,5.10
2022-11-12T11:11:37.698Z,5.35
2022-11-12T11:14:40.615Z,5.39
2022-11-12T11:17:41.949Z,5.25
2022-11-12T11:20:47.822Z,5.44
2022-11-12T11:23:49.096Z,5.48
2022-11-12T11:26:56.589Z,5.75
2022-11-12T11:29:57.863Z,5.94
2022-11-12T11:33:05.393Z,5.94
2022-11-12T11:36:13.193Z,5.82
2022-11-12T11:39:14.480Z,5.72
2022-11-12T11:42:34.598Z,5.84
2022-11-12T11:45:35.909Z,6.12
2022-11-12T11:48:43.355Z,5.98
2022-11-12T11:51:48.533Z,6.11
2022-11-12T11:54:52.586Z,6.26
2022-11-12T11:58:09.486Z,6.13
2022-11-12T12:01:14.743Z,6.21
2022-11-12T12:04:33.366Z,6.30
2022-11-12T12:07:35.274Z,6.26
2022-11-12T12:11:01.366Z,6.29
2022-11-12T12:14:04.424Z,6.13
2022-11-12T12:17:17.936Z,6.12
2022-11-12T12:20:19.263Z,6.15
2022-11-12T12:23:20.581Z,6.11
2022-11-12T12:26:31.277Z,6.23
2022-11-12T12:30:08.134Z,6.37
2022-11-12T12:33:28.041Z,6.48
2022-11-12T12:36:30.949Z,6.34
2022-11-12T12:39:52.681Z,6.08
2022-11-12T12:42:55.261Z,5.77
2022-11-12T12:45:57.054Z,5.68
2022-11-12T12:48:58.537Z,5.59
2022-11-12T12:51:59.879Z,5.55
2022-11-12T12:55:01.648Z,5.68
2022-11-12T12:58:02.998Z,5.51
2022-11-12T13:01:05.711Z,5.43
2022-11-12T13:04:08.830Z,5.43
2022-11-12T13:07:11.081Z,5.30
2022-11-12T13:10:31.557Z,5.31
2022-11-12T13:13:33.816Z,5.19
2022-11-12T13:16:51.044Z,5.29
2022-11-12T13:19:58.419Z,5.32
2022-11-12T13:22:59.836Z,5.37
2022-11-12T13:26:30.608Z,5.31
2022-11-12T13:29:32.075Z,5.11
2022-11-12T13:32:34.620Z,5.03
2022-11-12T13:35:36.425Z,4.99
2022-11-12T13:38:37.983Z,4.76
2022-11-12T13:41:58.041Z,4.97
2022-11-12T13:44:59.513Z,4.97
2022-11-12T13:48:00.987Z,4.97
2022-11-12T13:51:03.062Z,4.87
2022-11-12T13:54:23.903Z,4.81
2022-11-12T13:57:29.557Z,4.88
2022-11-12T14:00:31.766Z,4.87
2022-11-12T14:03:43.040Z,4.69
2022-11-12T14:06:45.694Z,4.70
2022-11-12T14:09:56.207Z,4.78
2022-11-12T14:13:04.423Z,4.81
2022-11-12T14:16:12.913Z,4.71
2022-11-12T14:19:33.170Z,4.81
2022-11-12T14:22:39.155Z,4.91
2022-11-12T14:26:06.886Z,4.78
2022-11-12T14:29:16.010Z,4.95
2022-11-12T14:32:17.402Z,5.01
2022-11-12T14:35:24.887Z,5.02
2022-11-12T14:38:27.947Z,5.05
2022-11-12T14:41:39.186Z,5.00
2022-11-12T14:44:40.538Z,4.95
2022-11-12T14:47:41.868Z,5.03
2022-11-12T14:50:47.982Z,4.88
2022-11-12T14:53:56.950Z,4.82
2022-11-12T14:56:58.408Z,4.74
2022-11-12T14:59:59.726Z,4.63
2022-11-12T15:03:01.326Z,4.52
2022-11-12T15:06:02.671Z,4.53
2022-11-12T15:09:04.080Z,4.55
2022-11-12T15:12:06.922Z,4.49
2022-11-12T15:15:17.920Z,4.54
2022-11-12T15:18:28.685Z,4.50
2022-11-12T15:21:30.062Z,4.50
2022-11-12T15:24:32.090Z,4.43
2022-11-12T15:27:37.781Z,4.37
2022-11-12T15:30:39.196Z,4.40
2022-11-12T15:33:40.518Z,4.43
2022-11-12T15:36:41.846Z,4.41
2022-11-12T15:39:44.215Z,4.40
2022-11-12T15:42:45.562Z,4.42
2022-11-12T15:45:50.663Z,4.37
2022-11-12T15:48:55.989Z,4.36
2022-11-12T15:51:57.617Z,4.39
2022-11-12T15:54:58.938Z,4.39
2022-11-12T15:58:00.301Z,4.40
2022-11-12T16:01:01.725Z,4.40
2022-11-12T16:04:03.101Z,4.39
2022-11-12T16:07:06.879Z,4.45
2022-11-12T16:10:12.355Z,4.47
2022-11-12T16:13:22.862Z,4.45
2022-11-12T16:16:24.207Z,4.41
2022-11-12T16:19:26.363Z,4.35
2022-11-12T16:22:28.071Z,4.34
2022-11-12T16:25:30.133Z,4.30
2022-11-12T16:28:31.476Z,4.31
2022-11-12T16:31:32.890Z,4.24
2022-11-12T16:34:34.396Z,4.22
2022-11-12T16:37:38.287Z,4.21
2022-11-12T16:40:40.181Z,4.20
2022-11-12T16:43:41.723Z,4.19
2022-11-12T16:46:43.820Z,4.16
2022-11-12T16:49:45.157Z,4.14
2022-11-12T16:52:46.534Z,4.03
2022-11-12T16:55:47.857Z,4.08
2022-11-12T16:58:49.307Z,4.02
2022-11-12T17:01:50.779Z,4.06
2022-11-12T17:04:52.093Z,4.04
2022-11-12T17:07:56.967Z,4.04
2022-11-12T17:10:58.294Z,4.06
2022-11-12T17:14:00.133Z,4.06
2022-11-12T17:17:01.465Z,4.05
2022-11-12T17:20:02.895Z,4.00
2022-11-12T17:23:04.227Z,4.01
2022-11-12T17:26:06.030Z,3.89
2022-11-12T17:29:08.419Z,3.94
2022-11-12T17:32:10.095Z,3.97
2022-11-12T17:35:11.443Z,3.99
2022-11-12T17:38:12.815Z,3.91
2022-11-12T17:41:14.225Z,3.96
2022-11-12T17:44:16.373Z,3.99
2022-11-12T17:47:17.712Z,4.01
2022-11-12T17:50:19.083Z,3.90
2022-11-12T17:53:20.531Z,3.84
2022-11-12T17:56:22.279Z,3.89
2022-11-12T17:59:23.640Z,3.93
2022-11-12T18:02:24.966Z,3.91
2022-11-12T18:05:26.362Z,3.92
2022-11-12T18:08:27.713Z,3.94
2022-11-12T18:11:29.294Z,4.00
2022-11-12T18:14:30.617Z,3.88
2022-11-12T18:17:35.074Z,3.92
2022-11-12T18:20:38.032Z,3.91
2022-11-12T18:23:39.631Z,3.81
2022-11-12T18:26:41.101Z,3.83
2022-11-12T18:29:42.431Z,3.85
2022-11-12T18:32:43.765Z,3.83
2022-11-12T18:35:45.083Z,3.74
2022-11-12T18:38:48.381Z,3.78
2022-11-12T18:41:51.210Z,3.79
2022-11-12T18:44:52.526Z,3.66
2022-11-12T18:47:53.947Z,3.66
2022-11-12T18:50:58.889Z,3.63
2022-11-12T18:54:00.447Z,3.59
2022-11-12T18:57:01.757Z,3.57
2022-11-12T19:00:03.567Z,3.43
2022-11-12T19:03:04.926Z,3.49
2022-11-12T19:06:06.466Z,3.54
2022-11-12T19:09:11.790Z,3.58
2022-11-12T19:12:13.273Z,3.62
2022-11-12T19:15:14.641Z,3.67
2022-11-12T19:18:15.965Z,3.68
2022-11-12T19:21:23.932Z,3.68
2022-11-12T19:24:25.314Z,3.70
2022-11-12T19:27:26.697Z,3.74
2022-11-12T19:30:28.018Z,3.71
2022-11-12T19:33:29.338Z,3.73
2022-11-12T19:36:30.716Z,3.72
2022-11-12T19:39:32.047Z,3.73
2022-11-12T19:42:33.409Z,3.72
2022-11-12T19:45:34.735Z,3.66
2022-11-12T19:48:36.089Z,3.61
2022-11-12T19:51:37.416Z,3.56
2022-11-12T19:54:38.851Z,3.55
2022-11-12T19:57:40.176Z,3.57
2022-11-12T20:00:41.595Z,3.55
2022-11-12T20:03:42.968Z,3.51
2022-11-12T20:06:44.343Z,3.46
2022-11-12T20:09:45.756Z,3.44
2022-11-12T20:12:47.123Z,3.50
2022-11-12T20:15:48.477Z,3.48
2022-11-12T20:18:51.839Z,3.56
2022-11-12T20:21:53.165Z,3.45
2022-11-12T20:24:54.506Z,3.33
2022-11-12T20:27:55.829Z,3.44
2022-11-12T20:31:07.318Z,3.39
2022-11-12T20:34:08.706Z,3.38
2022-11-12T20:37:10.055Z,3.31
2022-11-12T20:40:11.431Z,3.25
2022-11-12T20:43:12.779Z,3.29
2022-11-12T20:46:14.200Z,3.25
2022-11-12T20:49:15.536Z,3.32
2022-11-12T20:52:16.975Z,3.37
2022-11-12T20:55:18.354Z,3.35
2022-11-12T20:58:19.679Z,3.38
2022-11-12T21:01:21.702Z,3.37
2022-11-12T21:04:23.450Z,3.29
2022-11-12T21:07:24.915Z,3.29
2022-11-12T21:10:27.006Z,3.35
2022-11-12T21:13:28.586Z,3.35
2022-11-12T21:16:29.912Z,3.36
2022-11-12T21:19:31.384Z,3.38
2022-11-12T21:22:32.944Z,3.34
2022-11-12T21:25:34.889Z,3.35
2022-11-12T21:28:38.161Z,3.33
2022-11-12T21:31:39.467Z,3.29
2022-11-12T21:34:40.800Z,3.34
2022-11-12T21:37:42.132Z,3.39
2022-11-12T21:40:43.468Z,3.40
2022-11-12T21:43:44.956Z,3.42
2022-11-12T21:46:46.276Z,3.36
2022-11-12T21:49:47.609Z,3.35
2022-11-12T21:52:48.972Z,3.32
2022-11-12T21:55:50.294Z,3.28
2022-11-12T21:58:52.369Z,3.24
2022-11-12T22:01:53.678Z,3.18
2022-11-12T22:04:55.043Z,3.20
2022-11-12T22:07:56.396Z,3.28
2022-11-12T22:11:02.199Z,3.31
2022-11-12T22:14:03.532Z,3.30
2022-11-12T22:17:04.906Z,3.29
2022-11-12T22:20:06.551Z,3.29
2022-11-12T22:23:07.897Z,3.23
2022-11-12T22:26:20.706Z,3.17
2022-11-12T22:29:22.189Z,3.20
2022-11-12T22:32:23.502Z,3.22
2022-11-12T22:35:24.824Z,3.20
2022-11-12T22:38:26.459Z,3.24
2022-11-12T22:41:28.667Z,3.10
2022-11-12T22:44:30.021Z,3.06
2022-11-12T22:47:32.703Z,2.98
2022-11-12T22:50:34.069Z,2.99
2022-11-12T22:53:35.534Z,2.97
2022-11-12T22:56:39.051Z,3.01
2022-11-12T22:59:40.391Z,2.98
2022-11-12T23:02:46.354Z,2.97
2022-11-12T23:05:55.628Z,2.90
2022-11-12T23:08:57.331Z,2.87
2022-11-12T23:11:58.650Z,2.91
2022-11-12T23:15:00.028Z,2.91
2022-11-12T23:18:01.359Z,2.85
2022-11-12T23:21:22.949Z,2.91
2022-11-12T23:24:24.283Z,2.77
2022-11-12T23:27:25.611Z,2.74
2022-11-12T23:30:27.076Z,2.66
2022-11-12T23:33:28.432Z,2.68
2022-11-12T23:36:29.799Z,2.80
2022-11-12T23:39:31.162Z,2.73
2022-11-12T23:42:32.509Z,2.74
2022-11-12T23:45:38.053Z,2.76
2022-11-12T23:48:39.393Z,2.69
2022-11-12T23:51:40.763Z,2.67
2022-11-12T23:54:42.104Z,2.55
2022-11-12T23:57:43.491Z,2.52
